National Weather Service Raw Text Product

Bulk Download

PIL:
Start UTC Date @0z:
End UTC Date @0z:
717 
FTUS43 KDMX 090520
TAFDSM
TAF
KDSM 090520Z 0906/1006 11005KT P6SM FEW250=